»·PEaware :: DCM3227 KOTH-KSJC

DCM3227 :: KOTH-KSJC

FLIGHT INFORMATION

Flight Status: Arrived
Operator: Unknown
More flights by this operator :: More flights under this callsign
Pilot: Anonymous 18910 (18910)
Aircraft: AIRBUS A319
(A319)
More flights by this aircraft type
Origin: KOTH North Bend Mun
United States
Destination: KSJC Mineta San Jose Intl
United States
More flights between these airports :: More routes between these airports
Route: +OTH6 LEDGE CEXUN MENSE CHBLI BRIXX2
File this flight plan on PilotEdge
Remarks:
Altitude:
(Current/Filed)
27,000ft
Speed:
(Current/Filed)
350kts
Departed: 24-Jun-18 08:36 PM
Arrived: 24-Jun-18 09:45 PM
Distance/Time
Traveled:
379nm/1:09
Distance/Time
To Go:
Arrived

Flight Plot

Page will automatically refresh every two minutes.

Flight plan parsing failed; only flown route is shown


Map Options




Map Legend


Flown Route
Filed Route
Departure Airport
Arrival Airport
Navaid (VOR, NDB)
Fix

Horizontal Profiles

Position Reports

Time Latitude Longitude Heading Altitude Ground
Speed
24-Jun-18 20:24 43.416871 -124.249559 211 13ft 0kts
24-Jun-18 20:25 43.416871 -124.249559 211 13ft 0kts
24-Jun-18 20:26 43.416871 -124.249559 211 13ft 0kts
24-Jun-18 20:27 43.416871 -124.249559 211 13ft 0kts
24-Jun-18 20:28 43.416871 -124.249559 211 13ft 0kts
24-Jun-18 20:29 43.416871 -124.249559 211 13ft 0kts
24-Jun-18 20:30 43.416940 -124.249504 212 13ft 2kts
24-Jun-18 20:31 43.416983 -124.249021 303 13ft 0kts
24-Jun-18 20:32 43.416983 -124.249021 303 13ft 0kts
24-Jun-18 20:33 43.417779 -124.249839 278 13ft 9kts
24-Jun-18 20:34 43.415517 -124.255632 240 13ft 24kts
24-Jun-18 20:35 43.414534 -124.260387 340 13ft 9kts
24-Jun-18 20:36 43.427074 -124.229725 55 699ft 153kts
24-Jun-18 20:37 43.459701 -124.242155 280 2794ft 177kts
24-Jun-18 20:38 43.439133 -124.301487 240 4476ft 244kts
24-Jun-18 20:39 43.410696 -124.388384 267 8135ft 258kts
24-Jun-18 20:40 43.456697 -124.463145 348 10818ft 330kts
24-Jun-18 20:41 43.510943 -124.348979 125 12842ft 381kts
24-Jun-18 20:42 43.447183 -124.232065 132 15596ft 394kts
24-Jun-18 20:43 43.358526 -124.171381 187 18062ft 368kts
24-Jun-18 20:44 43.254747 -124.176369 186 20307ft 380kts
24-Jun-18 20:45 43.166088 -124.180355 187 21995ft 388kts
24-Jun-18 20:46 43.056642 -124.173370 175 23764ft 409kts
24-Jun-18 20:47 42.944721 -124.131796 171 25120ft 427kts
24-Jun-18 20:48 42.828289 -124.086616 170 26216ft 446kts
24-Jun-18 20:49 42.708171 -124.039993 170 27064ft 453kts
24-Jun-18 20:50 42.587196 -123.993292 170 27107ft 456kts
24-Jun-18 20:51 42.465448 -123.946469 170 28720ft 454kts
24-Jun-18 20:52 42.344583 -123.900173 171 30233ft 452kts
24-Jun-18 20:53 42.223793 -123.854131 171 31055ft 452kts
24-Jun-18 20:54 42.103187 -123.808369 171 31060ft 453kts
24-Jun-18 20:55 41.980029 -123.761850 171 31065ft 463kts
24-Jun-18 20:56 41.857156 -123.715569 171 31047ft 463kts
24-Jun-18 20:57 41.733341 -123.669212 171 31085ft 463kts
24-Jun-18 20:58 41.609660 -123.623020 171 31086ft 463kts
24-Jun-18 20:59 41.486231 -123.577099 171 31081ft 463kts
24-Jun-18 21:00 41.362272 -123.531159 171 31066ft 463kts
24-Jun-18 21:01 41.238916 -123.485618 171 31061ft 463kts
24-Jun-18 21:02 41.114843 -123.439998 171 31061ft 463kts
24-Jun-18 21:03 40.990914 -123.394763 169 31071ft 468kts
24-Jun-18 21:04 40.867809 -123.349781 169 31044ft 469kts
24-Jun-18 21:05 40.744002 -123.304339 169 31065ft 469kts
24-Jun-18 21:06 40.618532 -123.258852 169 31018ft 470kts
24-Jun-18 21:07 40.492568 -123.213441 169 30964ft 471kts
24-Jun-18 21:08 40.366468 -123.168153 169 30907ft 471kts
24-Jun-18 21:09 40.240294 -123.123007 169 30850ft 472kts
24-Jun-18 21:10 40.113520 -123.077836 169 30819ft 474kts
24-Jun-18 21:11 39.986992 -123.032912 169 30868ft 475kts
24-Jun-18 21:12 39.863012 -122.989091 169 30843ft 476kts
24-Jun-18 21:13 39.735472 -122.944258 168 30888ft 478kts
24-Jun-18 21:14 39.607473 -122.899337 168 30937ft 479kts
24-Jun-18 21:15 39.479183 -122.854466 168 30955ft 479kts
24-Jun-18 21:16 39.350792 -122.809723 168 30958ft 479kts
24-Jun-18 21:17 39.222655 -122.765253 168 30958ft 479kts
24-Jun-18 21:18 39.094571 -122.720967 168 30964ft 479kts
24-Jun-18 21:19 38.968072 -122.677381 168 30986ft 465kts
24-Jun-18 21:20 38.844581 -122.635097 167 30978ft 463kts
24-Jun-18 21:21 38.722777 -122.593430 167 31003ft 463kts
24-Jun-18 21:22 38.598196 -122.552314 170 30727ft 462kts
24-Jun-18 21:23 38.471683 -122.536319 181 29566ft 460kts
24-Jun-18 21:24 38.345058 -122.531957 180 26054ft 447kts
24-Jun-18 21:25 38.224336 -122.527771 180 23772ft 429kts
24-Jun-18 21:26 38.112025 -122.524005 179 21633ft 416kts
24-Jun-18 21:27 37.998765 -122.517975 177 19470ft 403kts
24-Jun-18 21:28 37.890013 -122.509587 177 17314ft 393kts
24-Jun-18 21:29 37.783247 -122.501653 177 15243ft 381kts
24-Jun-18 21:30 37.695811 -122.458729 139 13340ft 375kts
24-Jun-18 21:31 37.616171 -122.377715 148 11853ft 361kts
24-Jun-18 21:32 37.526452 -122.326737 157 10905ft 348kts
24-Jun-18 21:33 37.444472 -122.283348 158 8915ft 299kts
24-Jun-18 21:34 37.377608 -122.232293 133 6692ft 283kts
24-Jun-18 21:35 37.325437 -122.160866 133 4990ft 277kts
24-Jun-18 21:36 37.272697 -122.089969 133 4977ft 278kts
24-Jun-18 21:37 37.220618 -122.019261 133 4847ft 268kts
24-Jun-18 21:38 37.178491 -121.951949 118 3937ft 239kts
24-Jun-18 21:39 37.170716 -121.871481 78 3009ft 236kts
24-Jun-18 21:40 37.209369 -121.812559 16 2991ft 213kts
24-Jun-18 21:41 37.260958 -121.819296 320 2499ft 176kts
24-Jun-18 21:42 37.293006 -121.853398 318 1730ft 137kts
24-Jun-18 21:43 37.320634 -121.883741 317 1041ft 129kts
24-Jun-18 21:44 37.347500 -121.913144 316 357ft 128kts
24-Jun-18 21:45 37.366778 -121.934528 292 49ft 19kts
24-Jun-18 21:46 37.364593 -121.936191 139 53ft 12kts
24-Jun-18 21:47 37.360805 -121.932044 137 57ft 21kts
24-Jun-18 21:48 37.357596 -121.929403 143 61ft 9kts

Navigation Log

Ident Type
Flight plan parsing failed, navigation log unavailable